Time;durP1;ratioP1;P1;durP2;ratioP2;P2;SDS_P1;SDS_P2;PMS_P1;PMS_P2;Temp;Humidity;BMP_temperature;BMP_pressure;BME280_temperature;BME280_humidity;BME280_pressure;Samples;Min_cycle;Max_cycle;Signal;HPM_P1;HPM_P2
2023/06/07 00:00:59;;;;;;;7.10;4.93;;;10.50;99.90;;;;;;5087730;28;20054;-80
2023/06/07 00:03:26;;;;;;;10.82;5.15;;;10.40;99.90;;;;;;5088080;28;20113;-80
2023/06/07 00:05:52;;;;;;;16.23;5.25;;;10.70;99.90;;;;;;5087539;28;20047;-79
2023/06/07 00:08:20;;;;;;;10.25;5.50;;;10.40;99.90;;;;;;5089180;28;20040;-80
2023/06/07 00:10:46;;;;;;;10.85;5.45;;;10.40;99.90;;;;;;5087116;28;20075;-80
2023/06/07 00:13:11;;;;;;;9.70;5.57;;;10.40;99.90;;;;;;5087801;28;20106;-79
2023/06/07 00:15:37;;;;;;;7.07;4.45;;;10.40;99.90;;;;;;5087626;28;20048;-79
2023/06/07 00:18:02;;;;;;;8.90;5.32;;;10.40;99.90;;;;;;5089405;28;20450;-79
2023/06/07 00:20:29;;;;;;;8.90;5.68;;;10.30;99.90;;;;;;5086679;28;20609;-80
2023/06/07 00:22:57;;;;;;;11.43;5.55;;;10.30;99.90;;;;;;5087625;28;20069;-80
2023/06/07 00:25:24;;;;;;;13.30;5.55;;;10.30;99.90;;;;;;5087924;28;20056;-79
2023/06/07 00:27:49;;;;;;;9.80;5.00;;;10.30;99.90;;;;;;5089019;28;20180;-79
2023/06/07 00:30:17;;;;;;;10.73;5.60;;;10.30;99.90;;;;;;5086789;28;20592;-80
2023/06/07 00:32:43;;;;;;;9.88;5.45;;;10.20;99.90;;;;;;5089088;28;20059;-80
2023/06/07 00:35:10;;;;;;;10.70;4.90;;;10.20;99.90;;;;;;5088698;28;20148;-79
2023/06/07 00:37:36;;;;;;;11.95;5.35;;;10.20;99.90;;;;;;5087689;28;20040;-79
2023/06/07 00:40:03;;;;;;;13.00;5.50;;;10.20;99.90;;;;;;5086711;28;20096;-80
2023/06/07 00:42:29;;;;;;;15.40;6.00;;;10.10;99.90;;;;;;5087417;28;20363;-80
2023/06/07 00:44:54;;;;;;;8.80;5.75;;;10.10;99.90;;;;;;5068962;28;20052;-80
2023/06/07 00:47:20;;;;;;;9.32;4.78;;;10.30;99.90;;;;;;5087278;28;20052;-80
2023/06/07 00:49:46;;;;;;;13.38;5.75;;;10.10;99.90;;;;;;5086474;28;20040;-80
2023/06/07 00:52:12;;;;;;;11.68;4.95;;;10.10;99.90;;;;;;5086991;28;20427;-79
2023/06/07 00:54:38;;;;;;;8.20;5.38;;;10.10;99.90;;;;;;5086338;28;20044;-80
2023/06/07 00:57:05;;;;;;;10.00;5.45;;;10.10;99.90;;;;;;5088425;28;20047;-80
2023/06/07 00:59:31;;;;;;;10.48;5.97;;;10.00;99.90;;;;;;5086934;28;20127;-79
2023/06/07 01:01:57;;;;;;;12.15;5.80;;;10.00;99.90;;;;;;5087277;28;20047;-80
2023/06/07 01:04:24;;;;;;;9.90;5.15;;;10.00;99.90;;;;;;5087853;28;20047;-80
2023/06/07 01:06:52;;;;;;;10.93;5.28;;;10.20;99.90;;;;;;5086411;28;20072;-80
2023/06/07 01:09:19;;;;;;;12.43;5.55;;;10.00;99.90;;;;;;5087020;28;20433;-81
2023/06/07 01:11:48;;;;;;;10.57;5.97;;;10.00;99.90;;;;;;5086824;28;20048;-80
2023/06/07 01:14:15;;;;;;;12.07;5.35;;;10.10;99.90;;;;;;5086725;28;20066;-80
2023/06/07 01:16:43;;;;;;;10.60;5.43;;;10.10;99.90;;;;;;5087083;28;20120;-80
2023/06/07 01:19:16;;;;;;;10.35;5.90;;;10.10;99.90;;;;;;5086886;28;20047;-80
2023/06/07 01:21:43;;;;;;;9.07;5.63;;;10.10;99.90;;;;;;5088269;28;20514;-79
2023/06/07 01:24:09;;;;;;;14.27;5.93;;;10.20;99.90;;;;;;5086391;28;20043;-80
2023/06/07 01:26:37;;;;;;;10.70;6.72;;;10.20;99.90;;;;;;5086541;28;20051;-80
2023/06/07 01:29:06;;;;;;;13.30;6.10;;;10.30;99.90;;;;;;5085843;28;20044;-80
2023/06/07 01:31:35;;;;;;;14.60;5.78;;;10.30;99.90;;;;;;5086182;28;20052;-80
2023/06/07 01:34:02;;;;;;;14.68;7.00;;;10.40;99.90;;;;;;5086081;28;20052;-81
2023/06/07 01:36:30;;;;;;;12.95;6.75;;;10.40;99.90;;;;;;5087673;28;20083;-80
2023/06/07 01:38:56;;;;;;;16.23;7.25;;;10.50;99.90;;;;;;5086308;28;20517;-80
2023/06/07 01:41:24;;;;;;;11.63;5.97;;;10.50;99.90;;;;;;5086255;28;20050;-80
2023/06/07 01:43:50;;;;;;;11.85;6.20;;;10.50;99.90;;;;;;5086216;28;20048;-79
2023/06/07 01:46:16;;;;;;;17.25;6.32;;;10.50;99.90;;;;;;5086424;28;20063;-80
2023/06/07 01:48:42;;;;;;;12.85;6.88;;;10.60;99.90;;;;;;5086724;28;20130;-80
2023/06/07 01:51:07;;;;;;;11.82;5.65;;;10.60;99.90;;;;;;5085010;28;20135;-81
2023/06/07 01:53:33;;;;;;;13.70;6.15;;;10.60;99.90;;;;;;5086262;28;20396;-80
2023/06/07 01:56:08;;;;;;;10.95;6.18;;;10.60;99.90;;;;;;5088468;28;20134;-80
2023/06/07 01:58:46;;;;;;;11.05;5.93;;;10.60;99.90;;;;;;5090327;28;20051;-79
2023/06/07 02:01:16;;;;;;;12.30;6.18;;;10.60;99.90;;;;;;5089913;28;20504;-80
2023/06/07 02:03:54;;;;;;;11.02;6.30;;;10.70;99.90;;;;;;5090641;28;20052;-80
2023/06/07 02:06:29;;;;;;;13.50;6.72;;;10.60;99.90;;;;;;5073445;28;20048;-80
2023/06/07 02:08:56;;;;;;;12.85;5.95;;;10.70;99.90;;;;;;5090030;28;20044;-80
2023/06/07 02:11:22;;;;;;;12.82;6.80;;;11.00;99.90;;;;;;5089562;28;20155;-80
2023/06/07 02:13:52;;;;;;;11.60;6.07;;;10.70;99.90;;;;;;5091442;28;20043;-80
2023/06/07 02:16:32;;;;;;;15.07;5.97;;;10.70;99.90;;;;;;5090170;28;20040;-79
2023/06/07 02:18:58;;;;;;;13.13;5.88;;;10.80;99.90;;;;;;5072397;28;20149;-80
2023/06/07 02:21:24;;;;;;;12.30;6.40;;;10.80;99.90;;;;;;5089840;28;20064;-79
2023/06/07 02:23:51;;;;;;;10.75;5.82;;;10.80;99.90;;;;;;5089753;28;20141;-80
2023/06/07 02:26:16;;;;;;;12.95;6.07;;;10.80;99.90;;;;;;5089745;28;20507;-80
2023/06/07 02:28:42;;;;;;;10.32;5.82;;;10.90;99.90;;;;;;5073040;28;20048;-80
2023/06/07 02:31:07;;;;;;;10.60;5.70;;;11.20;99.90;;;;;;5072594;28;20044;-80
2023/06/07 02:33:33;;;;;;;12.82;5.28;;;10.90;99.90;;;;;;5089129;28;20117;-79
2023/06/07 02:35:58;;;;;;;14.40;6.07;;;10.90;99.90;;;;;;5090856;28;20059;-81
2023/06/07 02:38:24;;;;;;;14.00;7.05;;;10.90;99.90;;;;;;5091338;28;20104;-80
2023/06/07 02:40:50;;;;;;;12.35;6.10;;;10.90;99.90;;;;;;5090065;28;20040;-80
2023/06/07 02:43:15;;;;;;;9.88;6.40;;;10.90;99.90;;;;;;5089676;28;20096;-81
2023/06/07 02:45:41;;;;;;;11.35;6.20;;;11.00;99.90;;;;;;5089383;28;20040;-81
2023/06/07 02:48:07;;;;;;;12.73;6.22;;;11.00;99.90;;;;;;5089370;28;20661;-81
2023/06/07 02:50:32;;;;;;;11.50;6.55;;;11.00;99.90;;;;;;5088288;28;20617;-81
2023/06/07 02:52:59;;;;;;;11.73;6.88;;;11.00;99.90;;;;;;5090749;28;20048;-80
2023/06/07 02:55:25;;;;;;;14.55;6.45;;;11.00;99.90;;;;;;5089281;28;20048;-80
2023/06/07 02:57:50;;;;;;;11.20;6.20;;;11.00;99.90;;;;;;5090933;28;20048;-80
2023/06/07 03:00:16;;;;;;;10.20;5.68;;;11.00;99.90;;;;;;5090680;28;20044;-80
2023/06/07 03:02:42;;;;;;;9.95;6.45;;;11.00;99.90;;;;;;5090815;28;20328;-78
2023/06/07 03:05:08;;;;;;;14.63;6.68;;;11.10;99.90;;;;;;5088716;28;20825;-81
2023/06/07 03:07:37;;;;;;;14.57;6.10;;;11.00;99.90;;;;;;5088194;28;20063;-79
2023/06/07 03:10:03;;;;;;;11.15;6.35;;;11.10;99.90;;;;;;5088784;28;20137;-81
2023/06/07 03:12:29;;;;;;;12.05;6.10;;;11.00;99.90;;;;;;5090319;28;20086;-80
2023/06/07 03:14:54;;;;;;;15.35;6.47;;;11.10;99.90;;;;;;5088884;28;20083;-80
2023/06/07 03:17:20;;;;;;;14.88;6.32;;;11.10;99.90;;;;;;5088324;28;20465;-80
2023/06/07 03:19:45;;;;;;;10.73;6.28;;;11.20;99.90;;;;;;5089532;28;20317;-80
2023/06/07 03:22:11;;;;;;;12.98;6.50;;;11.20;99.90;;;;;;5088664;28;20048;-81
2023/06/07 03:24:37;;;;;;;15.88;6.53;;;11.20;99.90;;;;;;5088597;28;20435;-80
2023/06/07 03:27:03;;;;;;;10.43;5.82;;;11.20;99.90;;;;;;5089933;28;20162;-80
2023/06/07 03:29:30;;;;;;;11.88;6.15;;;11.20;99.90;;;;;;5089600;28;20496;-79
2023/06/07 03:31:56;;;;;;;11.02;5.60;;;11.20;99.90;;;;;;5071371;28;20055;-80
2023/06/07 03:34:22;;;;;;;13.25;5.88;;;11.20;99.90;;;;;;5088020;28;20051;-80
2023/06/07 03:36:48;;;;;;;21.20;6.18;;;11.20;99.90;;;;;;5088410;28;20131;-81
2023/06/07 03:39:14;;;;;;;10.13;5.30;;;11.20;99.90;;;;;;5088395;28;20404;-81
2023/06/07 03:41:39;;;;;;;14.23;5.55;;;11.20;99.90;;;;;;5089238;28;20354;-80
2023/06/07 03:44:05;;;;;;;16.63;5.53;;;11.20;99.90;;;;;;5089577;28;20044;-80
2023/06/07 03:46:31;;;;;;;11.25;5.20;;;11.30;99.90;;;;;;5088190;28;20687;-79
2023/06/07 03:48:56;;;;;;;12.60;5.68;;;11.20;99.90;;;;;;5088157;28;20048;-80
2023/06/07 03:51:22;;;;;;;8.82;4.82;;;11.20;99.90;;;;;;5087612;28;20055;-80
2023/06/07 03:53:48;;;;;;;9.77;5.03;;;11.30;99.90;;;;;;5088664;28;20059;-81
2023/06/07 03:56:14;;;;;;;11.65;5.00;;;11.70;99.90;;;;;;5088134;28;20694;-80
2023/06/07 03:58:39;;;;;;;12.88;5.22;;;11.30;99.90;;;;;;5088194;28;20597;-81
2023/06/07 04:01:05;;;;;;;13.15;5.82;;;11.30;99.90;;;;;;5089214;28;20060;-81
2023/06/07 04:03:31;;;;;;;11.35;4.88;;;11.40;99.90;;;;;;5089249;28;20411;-81
2023/06/07 04:06:02;;;;;;;12.00;5.22;;;11.40;99.90;;;;;;5088870;28;20082;-80
2023/06/07 04:08:30;;;;;;;14.05;6.00;;;11.40;99.90;;;;;;5088158;28;20055;-80
2023/06/07 04:10:56;;;;;;;10.95;5.43;;;11.50;99.90;;;;;;5087287;28;20040;-80
2023/06/07 04:13:22;;;;;;;11.40;4.72;;;11.40;99.90;;;;;;5087544;28;20044;-80
2023/06/07 04:15:47;;;;;;;9.35;4.80;;;11.50;99.90;;;;;;5070881;28;20582;-80
2023/06/07 04:18:13;;;;;;;15.43;5.35;;;11.50;99.90;;;;;;5087496;28;20039;-80
2023/06/07 04:20:42;;;;;;;10.35;5.28;;;11.50;99.90;;;;;;5088601;28;20040;-80
2023/06/07 04:23:07;;;;;;;17.50;5.35;;;11.60;99.90;;;;;;5070034;28;20055;-80
2023/06/07 04:25:33;;;;;;;7.00;4.65;;;11.70;99.90;;;;;;5087151;28;20044;-80
2023/06/07 04:28:02;;;;;;;10.73;4.57;;;11.60;99.90;;;;;;5088762;28;20044;-80
2023/06/07 04:30:34;;;;;;;10.65;5.10;;;11.70;99.90;;;;;;5086937;28;20056;-80
2023/06/07 04:33:08;;;;;;;13.73;5.30;;;11.70;99.90;;;;;;5086816;28;20052;-80
2023/06/07 04:35:37;;;;;;;17.48;4.95;;;11.80;99.90;;;;;;5088247;28;20301;-81
2023/06/07 04:38:03;;;;;;;9.73;4.80;;;11.90;99.90;;;;;;5070718;28;20059;-80
2023/06/07 04:40:29;;;;;;;9.38;4.70;;;11.90;99.90;;;;;;5088460;28;20044;-80
2023/06/07 04:43:05;;;;;;;7.22;4.47;;;12.00;99.90;;;;;;5070753;28;20404;-80
2023/06/07 04:45:36;;;;;;;12.18;5.15;;;12.00;99.90;;;;;;5070306;28;20551;-80
2023/06/07 04:48:07;;;;;;;10.10;5.20;;;12.00;99.90;;;;;;5087772;28;20380;-80
2023/06/07 04:50:33;;;;;;;11.82;4.50;;;12.10;99.90;;;;;;5088064;28;20048;-80
2023/06/07 04:53:03;;;;;;;10.65;4.18;;;12.30;99.90;;;;;;5088595;28;20081;-80
2023/06/07 04:55:34;;;;;;;9.68;4.72;;;12.30;99.90;;;;;;5086883;28;20044;-80
2023/06/07 04:58:04;;;;;;;11.32;4.68;;;12.70;99.90;;;;;;5086943;28;20048;-80
2023/06/07 05:00:33;;;;;;;13.60;4.57;;;12.40;99.90;;;;;;5086866;28;20048;-80
2023/06/07 05:03:08;;;;;;;12.55;4.85;;;12.40;99.90;;;;;;5087019;28;20099;-80
2023/06/07 05:05:34;;;;;;;12.00;4.65;;;12.80;99.90;;;;;;5087793;28;20055;-80
2023/06/07 05:08:04;;;;;;;14.77;5.55;;;12.50;99.90;;;;;;5087155;28;20123;-80
2023/06/07 05:10:30;;;;;;;13.50;4.65;;;12.60;99.90;;;;;;5087401;28;20503;-80
2023/06/07 05:12:55;;;;;;;8.70;4.70;;;12.70;99.90;;;;;;5087852;28;20374;-80
2023/06/07 05:15:24;;;;;;;9.75;5.10;;;12.80;99.90;;;;;;5086552;28;20388;-79
2023/06/07 05:17:50;;;;;;;10.90;4.88;;;12.90;99.90;;;;;;5069390;28;20147;-80
2023/06/07 05:20:16;;;;;;;12.27;4.68;;;12.90;99.90;;;;;;5086190;28;20050;-79
2023/06/07 05:22:43;;;;;;;12.38;4.63;;;13.00;99.90;;;;;;5069885;28;20044;-81
2023/06/07 05:25:11;;;;;;;9.88;4.18;;;13.10;99.90;;;;;;5088325;28;20048;-81
2023/06/07 05:27:37;;;;;;;12.15;5.03;;;13.10;99.90;;;;;;5087681;28;20047;-80
2023/06/07 05:30:04;;;;;;;6.97;3.88;;;13.00;99.90;;;;;;5068417;28;20538;-80
2023/06/07 05:32:35;;;;;;;9.65;4.60;;;13.10;99.90;;;;;;5069614;28;20632;-80
2023/06/07 05:35:02;;;;;;;11.00;4.60;;;13.30;99.90;;;;;;5087345;28;20468;-80
2023/06/07 05:37:29;;;;;;;9.05;4.75;;;13.30;99.90;;;;;;5069509;28;20052;-80
2023/06/07 05:39:55;;;;;;;8.48;3.63;;;13.60;99.90;;;;;;5086241;28;20449;-80
2023/06/07 05:42:20;;;;;;;11.65;4.13;;;14.20;99.90;;;;;;5086507;28;20149;-80
2023/06/07 05:44:48;;;;;;;8.88;3.78;;;14.40;99.90;;;;;;5086819;28;20522;-79
2023/06/07 05:47:14;;;;;;;8.18;3.35;;;14.40;99.90;;;;;;5085697;28;20048;-80
2023/06/07 05:49:39;;;;;;;11.75;3.80;;;14.60;99.90;;;;;;5087133;28;20050;-80
2023/06/07 05:52:06;;;;;;;12.57;4.18;;;14.50;99.90;;;;;;5086218;28;20051;-80
2023/06/07 05:54:31;;;;;;;9.80;3.88;;;14.50;99.90;;;;;;5088084;28;20450;-80
2023/06/07 05:56:57;;;;;;;9.40;3.83;;;14.40;99.90;;;;;;5069011;28;20048;-79
2023/06/07 05:59:23;;;;;;;10.18;3.90;;;14.70;99.90;;;;;;5087221;28;20075;-79
2023/06/07 06:01:49;;;;;;;11.93;4.35;;;14.90;99.90;;;;;;5086494;28;20095;-79
2023/06/07 06:04:16;;;;;;;8.82;3.88;;;15.10;99.90;;;;;;5086916;28;20044;-80
2023/06/07 06:06:42;;;;;;;9.18;3.97;;;15.30;99.90;;;;;;5088979;28;20078;-80
2023/06/07 06:09:09;;;;;;;8.48;3.30;;;15.80;99.90;;;;;;5085743;28;20122;-80
2023/06/07 06:11:34;;;;;;;10.45;3.75;;;16.00;99.90;;;;;;5069594;28;20523;-80
2023/06/07 06:14:00;;;;;;;8.68;3.80;;;15.90;99.90;;;;;;5087373;28;20096;-81
2023/06/07 06:16:25;;;;;;;10.38;3.65;;;15.70;99.90;;;;;;5087378;28;20437;-80
2023/06/07 06:18:51;;;;;;;8.57;4.03;;;15.50;99.90;;;;;;5088223;28;20048;-81
2023/06/07 06:21:17;;;;;;;10.98;3.70;;;15.40;99.90;;;;;;5088698;28;20055;-80
2023/06/07 06:23:42;;;;;;;8.18;3.55;;;15.30;99.90;;;;;;5070634;28;20057;-80
2023/06/07 06:26:08;;;;;;;10.27;3.80;;;15.10;99.90;;;;;;5089417;28;20040;-80
2023/06/07 06:28:34;;;;;;;11.00;4.28;;;14.90;99.90;;;;;;5086731;28;20127;-80
2023/06/07 06:31:01;;;;;;;7.63;3.20;;;14.90;99.90;;;;;;5086379;28;20414;-80
2023/06/07 06:33:27;;;;;;;16.80;4.65;;;14.70;99.90;;;;;;5055042;28;20437;-80
2023/06/07 06:35:53;;;;;;;9.65;3.88;;;14.80;99.90;;;;;;5086997;28;20113;-80
2023/06/07 06:38:19;;;;;;;10.68;3.90;;;14.80;99.90;;;;;;5085984;28;20162;-80
2023/06/07 06:40:45;;;;;;;10.23;3.78;;;14.80;99.90;;;;;;5087046;28;20048;-81
2023/06/07 06:43:11;;;;;;;9.20;3.72;;;14.80;99.90;;;;;;5090258;28;20051;-80
2023/06/07 06:45:37;;;;;;;7.05;3.30;;;14.90;99.90;;;;;;5092517;28;20048;-81
2023/06/07 06:48:03;;;;;;;8.15;4.07;;;15.10;99.90;;;;;;5094258;28;20492;-80
2023/06/07 06:50:29;;;;;;;11.27;3.90;;;15.10;99.90;;;;;;5075253;28;20464;-80
2023/06/07 06:52:55;;;;;;;12.85;4.03;;;15.10;99.90;;;;;;5093832;28;20043;-81
2023/06/07 06:55:20;;;;;;;11.38;3.78;;;15.20;99.90;;;;;;5092314;28;20040;-80
2023/06/07 06:57:46;;;;;;;8.73;3.65;;;15.40;99.90;;;;;;5095102;28;20104;-80
2023/06/07 07:00:12;;;;;;;16.00;5.07;;;15.60;99.90;;;;;;5094508;28;20075;-80
2023/06/07 07:02:38;;;;;;;11.07;3.70;;;15.70;99.90;;;;;;5092348;28;20047;-80
2023/06/07 07:05:07;;;;;;;10.90;3.78;;;16.20;99.90;;;;;;5072596;28;20044;-80
2023/06/07 07:07:33;;;;;;;7.68;3.00;;;16.10;99.90;;;;;;5090151;28;20121;-80
2023/06/07 07:09:59;;;;;;;6.00;3.05;;;16.30;99.90;;;;;;5091163;28;20051;-80
2023/06/07 07:12:25;;;;;;;8.15;3.22;;;16.40;99.90;;;;;;5091031;28;20044;-80
2023/06/07 07:14:51;;;;;;;8.45;3.42;;;16.50;99.90;;;;;;5073326;28;20743;-79
2023/06/07 07:17:17;;;;;;;10.23;3.40;;;16.50;99.90;;;;;;5089667;28;20054;-79
2023/06/07 07:19:43;;;;;;;7.57;3.30;;;16.40;99.90;;;;;;5090555;28;20044;-80
2023/06/07 07:22:08;;;;;;;8.80;3.95;;;16.40;99.90;;;;;;5090138;28;20135;-80
2023/06/07 07:24:34;;;;;;;9.90;3.53;;;16.30;99.90;;;;;;5091001;28;20404;-79
2023/06/07 07:26:59;;;;;;;10.35;3.67;;;16.40;99.90;;;;;;5072433;28;20070;-80
2023/06/07 07:29:26;;;;;;;8.75;3.47;;;16.40;99.90;;;;;;5089154;28;20047;-79
2023/06/07 07:31:51;;;;;;;10.95;3.88;;;16.40;99.90;;;;;;5090596;28;20044;-80
2023/06/07 07:34:18;;;;;;;8.35;3.15;;;16.50;99.90;;;;;;5089445;28;20120;-80
2023/06/07 07:36:44;;;;;;;7.90;3.40;;;16.50;99.90;;;;;;5090821;28;20040;-80
2023/06/07 07:39:15;;;;;;;11.38;3.60;;;16.60;99.90;;;;;;5090403;28;20526;-79
2023/06/07 07:41:41;;;;;;;19.55;4.18;;;16.90;99.90;;;;;;5089176;28;20051;-80
2023/06/07 07:44:07;;;;;;;12.52;4.13;;;16.90;99.90;;;;;;5091182;28;20040;-80
2023/06/07 07:46:32;;;;;;;14.45;3.70;;;16.90;99.90;;;;;;5089347;28;20044;-79
2023/06/07 07:48:58;;;;;;;12.70;3.53;;;16.90;99.90;;;;;;5090097;28;20036;-80
2023/06/07 07:51:24;;;;;;;7.70;3.10;;;16.70;99.90;;;;;;5091390;28;20048;-80
2023/06/07 07:53:53;;;;;;;10.07;3.40;;;17.00;99.90;;;;;;5089249;28;20435;-80
2023/06/07 07:56:22;;;;;;;11.70;3.88;;;17.10;99.90;;;;;;5089636;28;20069;-81
2023/06/07 07:58:51;;;;;;;5.35;3.30;;;17.10;99.90;;;;;;5087919;28;20040;-80
2023/06/07 08:01:20;;;;;;;10.07;3.20;;;17.30;99.90;;;;;;5091689;28;20101;-80
2023/06/07 08:03:46;;;;;;;8.18;3.30;;;17.20;99.90;;;;;;5075701;28;20598;-80
2023/06/07 08:06:12;;;;;;;6.28;3.17;;;17.50;99.90;;;;;;5092912;28;20052;-80
2023/06/07 08:08:38;;;;;;;8.88;3.55;;;17.50;99.90;;;;;;5073231;28;20050;-79
2023/06/07 08:11:03;;;;;;;10.40;3.50;;;17.70;99.90;;;;;;5089094;28;20457;-79
2023/06/07 08:13:29;;;;;;;10.20;3.60;;;17.90;99.90;;;;;;5089930;28;20108;-81
2023/06/07 08:15:55;;;;;;;7.95;3.72;;;18.00;99.90;;;;;;5092950;28;20044;-79
2023/06/07 08:18:21;;;;;;;8.95;3.83;;;18.00;99.90;;;;;;5091452;28;20040;-80
2023/06/07 08:20:46;;;;;;;6.90;3.22;;;18.20;99.90;;;;;;5089326;28;20040;-81
2023/06/07 08:23:12;;;;;;;8.07;2.92;;;18.30;99.90;;;;;;5091928;28;20570;-80
2023/06/07 08:25:37;;;;;;;7.43;3.00;;;18.20;99.90;;;;;;5093595;28;20036;-79
2023/06/07 08:28:04;;;;;;;5.40;3.00;;;18.40;99.90;;;;;;5074364;28;20083;-81
2023/06/07 08:30:31;;;;;;;11.85;3.63;;;18.20;99.90;;;;;;5091012;28;20071;-80
2023/06/07 08:32:57;;;;;;;8.18;3.30;;;18.10;99.90;;;;;;5090717;28;20052;-79
2023/06/07 08:35:22;;;;;;;8.35;4.18;;;18.20;99.90;;;;;;5091271;28;20044;-79
2023/06/07 08:37:48;;;;;;;8.23;3.08;;;18.30;99.90;;;;;;5092345;28;20392;-80
2023/06/07 08:40:18;;;;;;;7.22;3.38;;;18.50;99.90;;;;;;5092594;28;20043;-78
2023/06/07 08:42:43;;;;;;;6.85;3.30;;;18.70;99.80;;;;;;5090734;28;20056;-80
2023/06/07 08:45:10;;;;;;;7.97;3.17;;;18.40;98.90;;;;;;5088750;28;20093;-79
2023/06/07 08:47:41;;;;;;;7.18;2.92;;;18.70;98.60;;;;;;5089298;28;20055;-78
2023/06/07 08:50:16;;;;;;;6.47;3.05;;;18.90;98.20;;;;;;5090592;28;20093;-80
2023/06/07 08:52:45;;;;;;;9.23;2.97;;;19.00;97.30;;;;;;5088779;28;20059;-78
2023/06/07 08:55:11;;;;;;;7.72;3.22;;;19.10;96.60;;;;;;5089201;28;20467;-79
2023/06/07 08:57:38;;;;;;;6.47;2.60;;;19.00;96.20;;;;;;5090383;28;20091;-80
2023/06/07 09:00:08;;;;;;;8.80;3.50;;;19.20;96.10;;;;;;5089492;28;20043;-79
2023/06/07 09:02:34;;;;;;;9.80;3.75;;;19.20;95.70;;;;;;5090416;28;20036;-80
2023/06/07 09:05:01;;;;;;;6.38;3.40;;;19.20;95.50;;;;;;5089303;28;20074;-79
2023/06/07 09:07:27;;;;;;;6.50;3.22;;;19.20;94.80;;;;;;5091537;28;20578;-80
2023/06/07 09:09:53;;;;;;;5.47;3.13;;;19.30;94.60;;;;;;5091898;28;20097;-80
2023/06/07 09:12:19;;;;;;;7.03;3.42;;;19.40;94.30;;;;;;5093392;28;20068;-79
2023/06/07 09:14:47;;;;;;;10.82;3.88;;;19.60;94.00;;;;;;5093217;28;20120;-80
2023/06/07 09:17:12;;;;;;;8.65;3.40;;;19.60;93.40;;;;;;5092619;28;20094;-80
2023/06/07 09:19:39;;;;;;;6.43;3.42;;;19.70;93.20;;;;;;5091718;28;20044;-79
2023/06/07 09:22:07;;;;;;;7.72;3.28;;;19.80;93.30;;;;;;5089295;28;20458;-80
2023/06/07 09:24:34;;;;;;;5.68;3.03;;;19.90;93.20;;;;;;5072720;28;20407;-79
2023/06/07 09:27:00;;;;;;;6.85;3.58;;;20.10;92.90;;;;;;5090342;28;20047;-80
2023/06/07 09:29:27;;;;;;;9.38;3.78;;;20.20;92.30;;;;;;5090256;28;20044;-79
2023/06/07 09:31:55;;;;;;;6.03;3.65;;;20.20;91.40;;;;;;5089433;28;20051;-79
2023/06/07 09:34:26;;;;;;;7.57;3.40;;;20.40;90.70;;;;;;5092772;28;20055;-80
2023/06/07 09:36:57;;;;;;;10.13;3.60;;;20.40;90.30;;;;;;5073561;28;20055;-79
2023/06/07 09:39:25;;;;;;;8.90;3.50;;;20.40;88.70;;;;;;5090121;28;20044;-80
2023/06/07 09:41:52;;;;;;;6.93;3.60;;;20.40;89.80;;;;;;5092136;28;20066;-80
2023/06/07 09:44:31;;;;;;;6.18;3.58;;;20.70;88.80;;;;;;5089765;28;20044;-78
2023/06/07 09:46:58;;;;;;;6.90;3.53;;;20.50;87.20;;;;;;5090167;28;20487;-80
2023/06/07 09:49:28;;;;;;;9.63;3.65;;;20.50;87.90;;;;;;5089676;28;20040;-80
2023/06/07 09:51:54;;;;;;;6.93;3.30;;;20.50;87.10;;;;;;5091521;28;20154;-80
2023/06/07 09:54:40;;;;;;;8.00;3.80;;;20.50;87.10;;;;;;5087991;28;20062;-80
2023/06/07 09:57:10;;;;;;;7.35;3.35;;;20.50;84.10;;;;;;5091387;28;20048;-79
2023/06/07 09:59:54;;;;;;;12.25;3.70;;;20.60;86.60;;;;;;5093157;28;20101;-81
2023/06/07 10:02:27;;;;;;;5.68;3.50;;;20.70;86.10;;;;;;5094026;28;20418;-80
2023/06/07 10:04:55;;;;;;;5.63;3.30;;;20.90;83.90;;;;;;5092625;28;20105;-80
2023/06/07 10:07:23;;;;;;;5.88;2.80;;;21.10;84.10;;;;;;5093009;28;20052;-80
2023/06/07 10:09:56;;;;;;;6.82;3.50;;;21.00;83.00;;;;;;5091181;28;20075;-80
2023/06/07 10:12:23;;;;;;;5.32;3.38;;;20.90;78.70;;;;;;5089548;28;20131;-81
2023/06/07 10:14:51;;;;;;;5.78;3.40;;;20.90;81.60;;;;;;5092151;28;20185;-80
2023/06/07 10:17:21;;;;;;;6.80;3.05;;;20.80;82.20;;;;;;5095172;28;20052;-79
2023/06/07 10:19:51;;;;;;;5.70;3.15;;;21.00;81.40;;;;;;5099926;28;20072;-80
2023/06/07 10:22:26;;;;;;;9.27;3.25;;;21.10;79.90;;;;;;5100235;28;20052;-79
2023/06/07 10:25:14;;;;;;;8.07;3.88;;;21.20;78.30;;;;;;5098448;28;20044;-80
2023/06/07 10:28:14;;;;;;;7.28;3.67;;;21.20;79.30;;;;;;5096089;28;20425;-80
2023/06/07 10:30:47;;;;;;;7.47;3.67;;;21.30;79.20;;;;;;5098076;28;20123;-80
2023/06/07 10:33:15;;;;;;;8.05;3.70;;;21.40;79.00;;;;;;5098502;28;20040;-80
2023/06/07 10:35:40;;;;;;;6.30;3.35;;;21.40;78.70;;;;;;5096356;28;20043;-80
2023/06/07 10:38:06;;;;;;;8.48;3.53;;;21.70;78.20;;;;;;5096892;28;20040;-79
2023/06/07 10:40:32;;;;;;;7.25;3.40;;;21.60;77.60;;;;;;5098861;28;20036;-79
2023/06/07 10:42:58;;;;;;;7.78;3.55;;;21.70;77.50;;;;;;5096102;28;20052;-80
2023/06/07 10:45:24;;;;;;;6.88;3.72;;;21.50;77.20;;;;;;5097322;28;20076;-80
2023/06/07 10:47:49;;;;;;;8.68;3.45;;;21.50;78.20;;;;;;5095913;28;20055;-80
2023/06/07 10:50:27;;;;;;;9.63;3.30;;;21.60;78.20;;;;;;5094511;28;20044;-80
2023/06/07 10:53:00;;;;;;;9.02;3.75;;;21.80;76.30;;;;;;5096578;28;20050;-80
2023/06/07 10:55:31;;;;;;;5.93;3.30;;;21.90;75.80;;;;;;5096596;28;20131;-80
2023/06/07 10:58:00;;;;;;;6.70;3.30;;;22.10;75.70;;;;;;5096330;28;20051;-80
2023/06/07 11:00:26;;;;;;;6.60;3.33;;;22.10;74.70;;;;;;5093530;28;20052;-80
2023/06/07 11:03:12;;;;;;;9.40;3.97;;;22.10;74.70;;;;;;5094012;28;20102;-80
2023/06/07 11:05:57;;;;;;;9.63;3.50;;;22.20;73.50;;;;;;5098152;28;20048;-80
2023/06/07 11:08:29;;;;;;;7.88;3.00;;;22.30;73.00;;;;;;5079207;28;20078;-80
2023/06/07 11:10:58;;;;;;;6.40;3.33;;;22.40;73.20;;;;;;5094989;28;20464;-80
2023/06/07 11:13:25;;;;;;;7.32;3.65;;;22.50;72.80;;;;;;5093168;28;20518;-80
2023/06/07 11:15:51;;;;;;;5.95;3.50;;;22.50;72.00;;;;;;5093430;28;20036;-81
2023/06/07 11:18:16;;;;;;;6.60;3.08;;;22.60;71.50;;;;;;5094621;28;20047;-79
2023/06/07 11:20:45;;;;;;;7.60;3.45;;;22.80;70.80;;;;;;5094587;28;20384;-81
2023/06/07 11:23:29;;;;;;;5.78;3.33;;;22.70;70.60;;;;;;5095497;28;20056;-80
2023/06/07 11:26:12;;;;;;;7.75;3.30;;;22.50;68.30;;;;;;5092549;28;20097;-80
2023/06/07 11:28:41;;;;;;;6.82;3.13;;;22.60;69.30;;;;;;5094664;28;20052;-79
2023/06/07 11:31:09;;;;;;;5.03;3.03;;;22.70;69.20;;;;;;5094559;28;20131;-80
2023/06/07 11:33:35;;;;;;;7.28;3.40;;;22.80;69.00;;;;;;5092502;28;20367;-80
2023/06/07 11:36:03;;;;;;;6.90;3.30;;;22.70;69.00;;;;;;5093086;28;20063;-80
2023/06/07 11:38:29;;;;;;;9.02;3.47;;;22.70;68.90;;;;;;5094532;28;20067;-81
2023/06/07 11:40:55;;;;;;;5.63;2.88;;;22.90;69.00;;;;;;5094838;28;20464;-80
2023/06/07 11:43:23;;;;;;;6.35;2.90;;;23.10;68.60;;;;;;5093164;28;20056;-80
2023/06/07 11:45:50;;;;;;;5.40;3.13;;;23.00;68.20;;;;;;5095244;28;20517;-80
2023/06/07 11:48:16;;;;;;;5.20;2.97;;;22.70;67.80;;;;;;5091003;28;20048;-80
2023/06/07 11:50:43;;;;;;;6.40;3.20;;;23.00;67.70;;;;;;5092757;28;20442;-80
2023/06/07 11:53:09;;;;;;;6.65;3.25;;;23.10;67.40;;;;;;5093326;28;20105;-79
2023/06/07 11:55:38;;;;;;;6.45;3.47;;;23.10;67.30;;;;;;5094410;28;20078;-79
2023/06/07 11:58:05;;;;;;;7.18;3.20;;;23.00;67.10;;;;;;5094719;28;20044;-79
2023/06/07 12:00:33;;;;;;;5.32;3.33;;;23.10;67.70;;;;;;5093128;28;20600;-80
2023/06/07 12:03:00;;;;;;;6.78;3.50;;;23.00;66.70;;;;;;5093928;28;20107;-80
2023/06/07 12:05:30;;;;;;;7.07;3.42;;;23.10;66.60;;;;;;5090551;28;20511;-80
2023/06/07 12:08:16;;;;;;;7.47;3.33;;;22.80;66.50;;;;;;5091549;28;20052;-80
2023/06/07 12:10:45;;;;;;;7.32;3.50;;;22.90;67.10;;;;;;5090488;28;20119;-80
2023/06/07 12:13:16;;;;;;;8.10;3.90;;;22.80;67.20;;;;;;5092965;28;20052;-80
2023/06/07 12:15:48;;;;;;;6.07;3.10;;;22.80;66.70;;;;;;5092656;28;20048;-80
2023/06/07 12:18:22;;;;;;;7.53;3.42;;;22.90;66.10;;;;;;5092052;28;20120;-80
2023/06/07 12:20:48;;;;;;;5.75;3.25;;;23.00;65.90;;;;;;5090272;28;20162;-80
2023/06/07 12:23:20;;;;;;;7.30;3.25;;;22.80;66.30;;;;;;5091793;28;20131;-81
2023/06/07 12:25:45;;;;;;;6.05;3.50;;;23.10;66.30;;;;;;5091061;28;20044;-80
2023/06/07 12:28:14;;;;;;;7.70;3.40;;;23.00;66.30;;;;;;5090555;28;20483;-80
2023/06/07 12:30:41;;;;;;;10.02;3.25;;;23.00;66.00;;;;;;5091766;28;20048;-80
2023/06/07 12:33:15;;;;;;;7.03;3.13;;;23.20;66.10;;;;;;5090334;28;20600;-80
2023/06/07 12:35:46;;;;;;;6.97;3.30;;;23.60;65.40;;;;;;5089760;28;20036;-80
2023/06/07 12:38:13;;;;;;;8.15;3.47;;;23.60;64.80;;;;;;5091876;28;20496;-80
2023/06/07 12:40:39;;;;;;;6.13;3.17;;;23.30;65.10;;;;;;5089419;28;20518;-81
2023/06/07 12:43:05;;;;;;;5.97;3.28;;;23.40;65.20;;;;;;5089372;28;20055;-80
2023/06/07 12:45:30;;;;;;;10.73;3.08;;;23.40;64.50;;;;;;5090722;28;20466;-79